Terminal Aerodrome Forecast
Issued by NWS Kansas City/Pleasant Hill, MO

Home | Current Version | Previous Version | Text Only | Print | Product List | Glossary On
Versions: 1 2 3 4 5 6 7 8 9 10 11 12 13 14 15 16 17 18 19 20 21
756
FTUS43 KEAX 211125
TAFMCI
TAF
KMCI 211125Z 2112/2212 18008KT P6SM FEW050 BKN200
     FM211600 21009KT P6SM SCT050 BKN200
     FM220000 19008KT P6SM VCTS BKN050CB
     FM220600 30012KT 4SM -TSRA BKN035CB OVC050=

USA.gov is the U.S. government's official web portal to all federal, state and local government web resources and services.